createdAt,value
2023-02-12T00:02:26.847Z,101523.31
2023-02-12T00:04:57.693Z,101520.69
2023-02-12T00:07:27.070Z,101519.72
2023-02-12T00:09:56.542Z,101523.47
2023-02-12T00:12:25.929Z,101514.88
2023-02-12T00:14:55.332Z,101518.44
2023-02-12T00:17:24.710Z,101525.38
2023-02-12T00:19:54.089Z,101510.00
2023-02-12T00:22:24.996Z,101518.75
2023-02-12T00:24:54.792Z,101518.75
2023-02-12T00:27:24.320Z,101517.94
2023-02-12T00:29:53.746Z,101529.13
2023-02-12T00:32:23.132Z,101522.31
2023-02-12T00:34:52.590Z,101522.31
2023-02-12T00:37:22.096Z,101527.50
2023-02-12T00:39:52.871Z,101532.03
2023-02-12T00:42:22.303Z,101525.88
2023-02-12T00:44:54.003Z,101526.84
2023-02-12T00:47:23.461Z,101535.59
2023-02-12T00:49:52.879Z,101539.81
2023-02-12T00:52:22.479Z,101532.03
2023-02-12T00:54:54.140Z,101532.03
2023-02-12T00:57:23.544Z,101533.00
2023-02-12T00:59:52.980Z,101543.38
2023-02-12T01:02:22.470Z,101548.56
2023-02-12T01:04:51.948Z,101544.34
2023-02-12T01:07:21.352Z,101539.16
2023-02-12T01:09:53.140Z,101543.38
2023-02-12T01:12:22.510Z,101526.19
2023-02-12T01:14:52.590Z,101538.19
2023-02-12T01:17:22.068Z,101533.00
2023-02-12T01:19:52.004Z,101528.97
2023-02-12T01:22:21.850Z,101534.16
2023-02-12T01:24:54.004Z,101531.56
2023-02-12T01:27:23.364Z,101523.13
2023-02-12T01:29:52.916Z,101527.50
2023-02-12T01:32:23.645Z,101533.50
2023-02-12T01:34:53.287Z,101535.25
2023-02-12T01:37:24.374Z,101530.09
2023-02-12T01:39:56.537Z,101529.28
2023-02-12T01:42:25.879Z,101524.91
2023-02-12T01:45:56.579Z,101530.41
2023-02-12T01:48:29.259Z,101526.03
2023-02-12T01:50:59.397Z,101515.84
2023-02-12T01:53:35.244Z,101515.69
2023-02-12T01:56:07.502Z,101513.25
2023-02-12T01:58:42.081Z,101512.44
2023-02-12T02:01:20.150Z,101518.75
2023-02-12T02:03:54.501Z,101522.00
2023-02-12T02:06:30.791Z,101520.38
2023-02-12T02:09:03.301Z,101512.63
2023-02-12T02:11:53.924Z,101516.81
2023-02-12T02:14:35.806Z,101520.38
2023-02-12T02:17:43.577Z,101519.72
2023-02-12T02:20:50.876Z,101511.28
2023-02-12T02:23:41.543Z,101512.13
2023-02-12T02:26:56.285Z,101520.88
2023-02-12T02:30:00.940Z,101519.06
2023-02-12T02:32:37.986Z,101509.53
2023-02-12T02:35:16.279Z,101512.78
2023-02-12T02:37:51.418Z,101509.19
2023-02-12T02:40:25.662Z,101516.81
2023-02-12T02:43:04.201Z,101515.00
2023-02-12T02:45:39.309Z,101513.25
2023-02-12T02:48:17.149Z,101516.50
2023-02-12T02:50:52.086Z,101513.25
2023-02-12T02:53:29.636Z,101505.63
2023-02-12T02:56:04.157Z,101511.94
2023-02-12T02:58:37.884Z,101520.72
2023-02-12T03:01:12.621Z,101518.28
2023-02-12T03:03:50.891Z,101508.69
2023-02-12T03:06:28.116Z,101507.09
2023-02-12T03:09:02.129Z,101523.47
2023-02-12T03:11:35.317Z,101519.06
2023-02-12T03:14:09.407Z,101524.25
2023-02-12T03:16:44.190Z,101513.72
2023-02-12T03:19:20.708Z,101514.88
2023-02-12T03:21:56.227Z,101517.47
2023-02-12T03:24:36.987Z,101517.47
2023-02-12T03:27:10.924Z,101524.56
2023-02-12T03:29:40.870Z,101517.47
2023-02-12T03:32:25.375Z,101522.63
2023-02-12T03:35:11.412Z,101520.72
2023-02-12T03:37:47.921Z,101520.72
2023-02-12T03:40:22.059Z,101516.31
2023-02-12T03:42:59.670Z,101525.72
2023-02-12T03:45:43.545Z,101516.97
2023-02-12T03:48:21.232Z,101528.94
2023-02-12T03:50:59.337Z,101523.94
2023-02-12T03:53:30.506Z,101526.34
2023-02-12T03:56:05.012Z,101517.78
2023-02-12T03:58:36.903Z,101516.00
2023-02-12T04:01:06.761Z,101518.44
2023-02-12T04:03:39.886Z,101519.25
2023-02-12T04:06:22.388Z,101524.44
2023-02-12T04:08:51.977Z,101522.97
2023-02-12T04:11:31.562Z,101522.00
2023-02-12T04:14:22.341Z,101527.34
2023-02-12T04:17:01.630Z,101529.94
2023-02-12T04:19:39.951Z,101534.44
2023-02-12T04:22:28.122Z,101532.69
2023-02-12T04:25:09.753Z,101535.94
2023-02-12T04:27:49.029Z,101540.13
2023-02-12T04:30:25.907Z,101546.31
2023-02-12T04:33:00.920Z,101543.72
2023-02-12T04:35:35.912Z,101542.88
2023-02-12T04:38:12.468Z,101543.72
2023-02-12T04:40:43.179Z,101543.72
2023-02-12T04:43:12.957Z,101543.53
2023-02-12T04:45:42.549Z,101546.09
2023-02-12T04:48:12.940Z,101548.53
2023-02-12T04:50:46.448Z,101554.69
2023-02-12T04:53:17.393Z,101547.75
2023-02-12T04:55:47.819Z,101548.53
2023-02-12T04:58:17.323Z,101548.53
2023-02-12T05:00:46.829Z,101542.41
2023-02-12T05:03:16.220Z,101542.41
2023-02-12T05:05:45.659Z,101542.41
2023-02-12T05:08:16.509Z,101547.28
2023-02-12T05:10:45.959Z,101547.59
2023-02-12T05:13:15.261Z,101535.75
2023-02-12T05:15:44.752Z,101538.19
2023-02-12T05:18:14.119Z,101531.53
2023-02-12T05:20:43.541Z,101532.38
2023-02-12T05:23:12.965Z,101532.38
2023-02-12T05:25:43.751Z,101527.50
2023-02-12T05:28:13.254Z,101529.94
2023-02-12T05:30:42.659Z,101534.13
2023-02-12T05:33:12.129Z,101533.50
2023-02-12T05:35:41.517Z,101538.53
2023-02-12T05:38:11.039Z,101535.28
2023-02-12T05:40:43.202Z,101540.28
2023-02-12T05:43:14.006Z,101539.47
2023-02-12T05:45:45.148Z,101527.50
2023-02-12T05:48:14.870Z,101531.06
2023-02-12T05:50:44.244Z,101535.44
2023-02-12T05:53:13.776Z,101540.63
2023-02-12T05:55:43.154Z,101534.78
2023-02-12T05:58:15.985Z,101545.13
2023-02-12T06:00:45.537Z,101538.19
2023-02-12T06:03:14.930Z,101530.72
2023-02-12T06:05:44.312Z,101536.56
2023-02-12T06:08:13.747Z,101536.72
2023-02-12T06:10:43.099Z,101549.69
2023-02-12T06:13:13.845Z,101539.47
2023-02-12T06:15:43.206Z,101536.22
2023-02-12T06:18:12.651Z,101554.19
2023-02-12T06:20:41.955Z,101537.19
2023-02-12T06:23:11.458Z,101552.75
2023-02-12T06:25:40.847Z,101560.53
2023-02-12T06:28:12.382Z,101556.63
2023-02-12T06:30:44.380Z,101547.06
2023-02-12T06:33:17.488Z,101558.09
2023-02-12T06:35:52.434Z,101555.34
2023-02-12T06:38:24.585Z,101554.84
2023-02-12T06:40:55.387Z,101548.72
2023-02-12T06:43:25.417Z,101557.63
2023-02-12T06:46:11.935Z,101553.38
2023-02-12T06:48:43.666Z,101575.75
2023-02-12T06:51:23.739Z,101554.34
2023-02-12T06:54:01.123Z,101559.38
2023-02-12T06:56:34.336Z,101568.91
2023-02-12T06:59:04.954Z,101566.66
2023-02-12T07:01:38.598Z,101572.50
2023-02-12T07:04:11.211Z,101581.25
2023-02-12T07:06:42.953Z,101577.69
2023-02-12T07:09:15.427Z,101578.50
2023-02-12T07:11:44.909Z,101588.03
2023-02-12T07:14:25.475Z,101582.69
2023-02-12T07:17:05.619Z,101588.84
2023-02-12T07:19:45.940Z,101595.81
2023-02-12T07:22:21.468Z,101601.00
2023-02-12T07:24:53.399Z,101596.78
2023-02-12T07:27:22.881Z,101594.03
2023-02-12T07:29:55.662Z,101594.03
2023-02-12T07:32:26.481Z,101600.00
2023-02-12T07:34:55.853Z,101602.44
2023-02-12T07:37:25.380Z,101606.84
2023-02-12T07:39:54.884Z,101600.84
2023-02-12T07:42:24.336Z,101606.00
2023-02-12T07:44:55.032Z,101607.00
2023-02-12T07:47:25.851Z,101605.19
2023-02-12T07:49:55.736Z,101605.19
2023-02-12T07:52:25.223Z,101609.06
2023-02-12T07:54:55.041Z,101604.88
2023-02-12T07:57:24.501Z,101609.91
2023-02-12T07:59:54.751Z,101611.66
2023-02-12T08:02:26.188Z,101601.31
2023-02-12T08:05:00.376Z,101612.19
2023-02-12T08:07:32.752Z,101615.75
2023-02-12T08:10:02.383Z,101612.19
2023-02-12T08:12:31.979Z,101616.53
2023-02-12T08:15:01.498Z,101610.56
2023-02-12T08:17:32.360Z,101617.19
2023-02-12T08:20:01.800Z,101616.22
2023-02-12T08:22:31.370Z,101623.03
2023-02-12T08:25:00.750Z,101625.59
2023-02-12T08:27:30.194Z,101615.09
2023-02-12T08:29:59.650Z,101631.47
2023-02-12T08:32:29.567Z,101615.25
2023-02-12T08:35:00.356Z,101626.13
2023-02-12T08:37:29.847Z,101635.66
2023-02-12T08:39:59.206Z,101635.19
2023-02-12T08:42:28.702Z,101632.44
2023-02-12T08:44:58.201Z,101626.44
2023-02-12T08:47:29.738Z,101627.25
2023-02-12T08:50:01.966Z,101637.97
2023-02-12T08:52:31.419Z,101636.00
2023-02-12T08:55:00.942Z,101629.22
2023-02-12T08:57:30.345Z,101630.69
2023-02-12T08:59:59.872Z,101639.91
2023-02-12T09:02:29.397Z,101655.31
2023-02-12T09:04:58.905Z,101649.97
2023-02-12T09:07:29.681Z,101645.59
2023-02-12T09:09:59.187Z,101632.31
2023-02-12T09:12:28.832Z,101646.91
2023-02-12T09:14:58.432Z,101645.13
2023-02-12T09:17:28.778Z,101643.00
2023-02-12T09:19:58.737Z,101650.63
2023-02-12T09:22:29.637Z,101651.28
2023-02-12T09:24:59.051Z,101638.00
2023-02-12T09:27:31.230Z,101649.16
2023-02-12T09:30:00.856Z,101642.06
2023-02-12T09:32:31.023Z,101647.88
2023-02-12T09:35:00.501Z,101637.34
2023-02-12T09:37:31.422Z,101643.03
2023-02-12T09:40:01.136Z,101626.66
2023-02-12T09:42:58.994Z,101649.66
2023-02-12T09:45:33.137Z,101647.06
2023-02-12T09:48:16.725Z,101653.91
2023-02-12T09:50:51.929Z,101652.94
2023-02-12T09:53:27.956Z,101650.34
2023-02-12T09:55:58.136Z,101651.47
2023-02-12T09:58:35.783Z,101658.94
2023-02-12T10:01:13.619Z,101646.75
2023-02-12T10:03:43.947Z,101647.41
2023-02-12T10:06:18.639Z,101645.16
2023-02-12T10:09:07.484Z,101650.00
2023-02-12T10:11:57.571Z,101635.25
2023-02-12T10:15:14.210Z,101641.28
2023-02-12T10:17:50.369Z,101637.69
2023-02-12T10:20:52.338Z,101639.97
2023-02-12T10:23:53.024Z,101638.81
2023-02-12T10:26:28.803Z,101628.28
2023-02-12T10:29:10.453Z,101629.56
2023-02-12T10:31:45.734Z,101629.09
2023-02-12T10:34:20.879Z,101627.94
2023-02-12T10:36:53.148Z,101625.03
2023-02-12T10:39:26.365Z,101620.50
2023-02-12T10:42:05.439Z,101621.16
2023-02-12T10:44:35.106Z,101612.09
2023-02-12T10:47:04.689Z,101606.53
2023-02-12T10:49:35.069Z,101600.84
2023-02-12T10:52:14.502Z,101605.56
2023-02-12T10:54:45.768Z,101602.63
2023-02-12T10:57:23.768Z,101608.47
2023-02-12T10:59:57.282Z,101605.72
2023-02-12T11:02:30.300Z,101610.38
2023-02-12T11:05:02.825Z,101604.69
2023-02-12T11:07:49.509Z,101601.63
2023-02-12T11:10:26.847Z,101595.09
2023-02-12T11:12:58.485Z,101596.53
2023-02-12T11:15:34.254Z,101565.88
2023-02-12T11:18:07.653Z,101586.31
2023-02-12T11:20:43.657Z,101568.75
2023-02-12T11:23:27.974Z,101581.56
2023-02-12T11:26:01.903Z,101578.47
2023-02-12T11:28:36.074Z,101586.09
2023-02-12T11:31:23.485Z,101550.22
2023-02-12T11:34:15.380Z,101565.47
2023-02-12T11:36:46.820Z,101567.53
2023-02-12T11:39:22.751Z,101562.66
2023-02-12T11:41:55.861Z,101560.84
2023-02-12T11:44:31.041Z,101559.38
2023-02-12T11:47:06.241Z,101554.97
2023-02-12T11:49:44.158Z,101554.63
2023-02-12T11:52:23.636Z,101555.28
2023-02-12T11:54:57.019Z,101554.94
2023-02-12T11:57:46.571Z,101554.78
2023-02-12T12:00:22.402Z,101550.03
2023-02-12T12:03:04.065Z,101549.88
2023-02-12T12:05:39.840Z,101544.31
2023-02-12T12:08:19.627Z,101547.38
2023-02-12T12:10:55.263Z,101546.06
2023-02-12T12:13:30.574Z,101541.50
2023-02-12T12:16:27.980Z,101537.56
2023-02-12T12:19:20.775Z,101532.50
2023-02-12T12:22:01.052Z,101534.28
2023-02-12T12:24:40.873Z,101525.22
2023-02-12T12:27:46.120Z,101522.19
2023-02-12T12:30:24.524Z,101522.41
2023-02-12T12:33:01.058Z,101522.78
2023-02-12T12:35:47.070Z,101525.59
2023-02-12T12:38:29.636Z,101525.09
2023-02-12T12:41:09.867Z,101525.88
2023-02-12T12:43:52.696Z,101518.25
2023-02-12T12:46:48.059Z,101507.56
2023-02-12T12:49:56.477Z,101506.03
2023-02-12T12:52:47.795Z,101499.75
2023-02-12T12:55:35.993Z,101493.00
2023-02-12T12:58:15.432Z,101489.19
2023-02-12T13:01:16.508Z,101480.41
2023-02-12T13:04:36.895Z,101483.03
2023-02-12T13:07:25.172Z,101487.06
2023-02-12T13:10:16.022Z,101474.63
2023-02-12T13:13:23.433Z,101462.59
2023-02-12T13:16:00.985Z,101475.63
2023-02-12T13:18:45.043Z,101472.84
2023-02-12T13:21:28.393Z,101467.81
2023-02-12T13:24:04.411Z,101459.19
2023-02-12T13:26:46.600Z,101460.00
2023-02-12T13:29:21.804Z,101455.59
2023-02-12T13:31:56.806Z,101461.59
2023-02-12T13:34:30.846Z,101454.78
2023-02-12T13:37:03.073Z,101454.41
2023-02-12T13:39:37.734Z,101452.63
2023-02-12T13:42:22.520Z,101455.25
2023-02-12T13:45:02.221Z,101445.78
2023-02-12T13:47:43.432Z,101455.25
2023-02-12T13:50:42.204Z,101452.00
2023-02-12T13:53:24.797Z,101451.00
2023-02-12T13:56:07.350Z,101449.38
2023-02-12T13:58:53.699Z,101446.16
2023-02-12T14:01:47.682Z,101446.34
2023-02-12T14:04:30.199Z,101441.34
2023-02-12T14:07:06.807Z,101442.75
2023-02-12T14:09:42.466Z,101434.13
2023-02-12T14:12:16.222Z,101430.50
2023-02-12T14:14:48.555Z,101433.31
2023-02-12T14:17:54.342Z,101433.53
2023-02-12T14:20:29.853Z,101430.91
2023-02-12T14:23:23.210Z,101430.09
2023-02-12T14:26:04.478Z,101427.31
2023-02-12T14:28:56.506Z,101429.91
2023-02-12T14:31:37.420Z,101427.31
2023-02-12T14:34:40.575Z,101424.06
2023-02-12T14:37:38.022Z,101422.88
2023-02-12T14:40:43.637Z,101419.84
2023-02-12T14:43:33.657Z,101415.66
2023-02-12T14:46:46.993Z,101416.00
2023-02-12T14:49:25.313Z,101411.59
2023-02-12T14:52:00.414Z,101403.94
2023-02-12T14:54:35.874Z,101407.19
2023-02-12T14:57:10.062Z,101398.56
2023-02-12T14:59:44.925Z,101403.59
2023-02-12T15:02:21.974Z,101397.59
2023-02-12T15:04:54.900Z,101398.38
2023-02-12T15:07:31.977Z,101393.16
2023-02-12T15:10:10.838Z,101393.16
2023-02-12T15:12:45.480Z,101392.56
2023-02-12T15:15:25.054Z,101392.56
2023-02-12T15:18:00.517Z,101390.75
2023-02-12T15:20:36.711Z,101386.72
2023-02-12T15:23:37.908Z,101390.50
2023-02-12T15:26:14.677Z,101401.75
2023-02-12T15:28:44.794Z,101387.28
2023-02-12T15:31:19.629Z,101392.28
2023-02-12T15:33:52.371Z,101396.53
2023-02-12T15:36:25.325Z,101394.13
2023-02-12T15:38:57.811Z,101399.50
2023-02-12T15:41:39.935Z,101389.09
2023-02-12T15:44:28.616Z,101387.44
2023-02-12T15:47:04.752Z,101386.84
2023-02-12T15:49:37.400Z,101396.63
2023-02-12T15:52:11.475Z,101386.03
2023-02-12T15:54:41.274Z,101387.84
2023-02-12T15:57:20.399Z,101383.59
2023-02-12T15:59:52.832Z,101392.44
2023-02-12T16:02:28.618Z,101392.44
2023-02-12T16:04:59.860Z,101384.97
2023-02-12T16:07:36.335Z,101393.78
2023-02-12T16:10:07.916Z,101390.56
2023-02-12T16:12:39.086Z,101392.56
2023-02-12T16:15:24.240Z,101391.88
2023-02-12T16:17:56.519Z,101389.66
2023-02-12T16:20:30.768Z,101389.81
2023-02-12T16:23:00.949Z,101397.81
2023-02-12T16:25:33.670Z,101392.59
2023-02-12T16:28:06.495Z,101405.03
2023-02-12T16:30:38.822Z,101413.19
2023-02-12T16:33:35.235Z,101405.75
2023-02-12T16:36:07.833Z,101411.50
2023-02-12T16:38:43.737Z,101409.06
2023-02-12T16:41:26.244Z,101412.69
2023-02-12T16:44:38.066Z,101413.22
2023-02-12T16:47:07.664Z,101416.66
2023-02-12T16:49:38.449Z,101421.22
2023-02-12T16:52:29.868Z,101417.38
2023-02-12T16:54:59.313Z,101424.53
2023-02-12T16:57:28.707Z,101422.94
2023-02-12T16:59:58.035Z,101423.75
2023-02-12T17:02:27.561Z,101428.94
2023-02-12T17:05:01.038Z,101427.31
2023-02-12T17:07:31.234Z,101433.53
2023-02-12T17:10:00.781Z,101432.88
2023-02-12T17:12:30.292Z,101427.06
2023-02-12T17:14:59.665Z,101429.22
2023-02-12T17:17:29.097Z,101432.81
2023-02-12T17:19:59.928Z,101436.41
2023-02-12T17:22:29.515Z,101445.19
2023-02-12T17:24:58.973Z,101439.53
2023-02-12T17:27:28.381Z,101439.72
2023-02-12T17:29:57.857Z,101481.53
2023-02-12T17:32:27.286Z,101447.06
2023-02-12T17:34:56.775Z,101449.06
2023-02-12T17:37:27.592Z,101452.84
2023-02-12T17:39:57.196Z,101447.97
2023-02-12T17:42:26.658Z,101452.53
2023-02-12T17:44:56.327Z,101456.16
2023-02-12T17:47:25.842Z,101456.50
2023-02-12T17:49:55.252Z,101454.06
2023-02-12T17:52:26.286Z,101453.59
2023-02-12T17:54:56.380Z,101460.81
2023-02-12T17:57:26.374Z,101463.09
2023-02-12T17:59:55.732Z,101456.66
2023-02-12T18:02:25.212Z,101462.03
2023-02-12T18:04:54.529Z,101465.81
2023-02-12T18:07:24.568Z,101460.94
2023-02-12T18:09:55.772Z,101461.31
2023-02-12T18:12:25.219Z,101458.44
2023-02-12T18:14:59.140Z,101462.81
2023-02-12T18:17:29.188Z,101470.00
2023-02-12T18:19:58.991Z,101474.72
2023-02-12T18:22:28.428Z,101475.09
2023-02-12T18:24:59.197Z,101479.66
2023-02-12T18:27:28.724Z,101484.22
2023-02-12T18:29:58.181Z,101484.72
2023-02-12T18:32:27.686Z,101482.09
2023-02-12T18:34:57.072Z,101482.94
2023-02-12T18:37:26.592Z,101482.28
2023-02-12T18:39:56.088Z,101480.69
2023-02-12T18:42:28.523Z,101480.84
2023-02-12T18:44:57.892Z,101479.25
2023-02-12T18:47:27.418Z,101495.97
2023-02-12T18:49:58.044Z,101482.97
2023-02-12T18:52:27.664Z,101486.75
2023-02-12T18:54:57.086Z,101491.31
2023-02-12T18:57:28.120Z,101489.06
2023-02-12T18:59:57.555Z,101484.03
2023-02-12T19:02:27.165Z,101481.63
2023-02-12T19:04:56.660Z,101481.78
2023-02-12T19:07:27.520Z,101487.16
2023-02-12T19:09:57.047Z,101483.91
2023-02-12T19:12:28.042Z,101488.31
2023-02-12T19:14:57.403Z,101472.06
2023-02-12T19:17:27.004Z,101484.91
2023-02-12T19:19:56.391Z,101482.47
2023-02-12T19:22:25.905Z,101474.84
2023-02-12T19:24:55.352Z,101480.88
2023-02-12T19:27:24.891Z,101478.44
2023-02-12T19:29:55.532Z,101479.22
2023-02-12T19:32:24.906Z,101477.63
2023-02-12T19:34:54.537Z,101478.78
2023-02-12T19:37:24.424Z,101478.13
2023-02-12T19:39:53.873Z,101485.13
2023-02-12T19:42:23.319Z,101487.09
2023-02-12T19:44:53.982Z,101480.28
2023-02-12T19:47:23.496Z,101479.63
2023-02-12T19:49:52.832Z,101477.03
2023-02-12T19:52:22.277Z,101483.88
2023-02-12T19:54:51.962Z,101485.81
2023-02-12T19:57:20.984Z,101483.38
2023-02-12T19:59:50.461Z,101480.16
2023-02-12T20:02:20.863Z,101481.13
2023-02-12T20:04:49.830Z,101481.31
2023-02-12T20:07:18.806Z,101482.28
2023-02-12T20:09:51.235Z,101488.47
2023-02-12T20:12:20.397Z,101486.84
2023-02-12T20:14:49.378Z,101488.81
2023-02-12T20:17:20.259Z,101491.59
2023-02-12T20:19:50.646Z,101494.34
2023-02-12T20:22:19.604Z,101491.28
2023-02-12T20:24:48.616Z,101491.44
2023-02-12T20:27:17.716Z,101491.44
2023-02-12T20:29:46.704Z,101494.38
2023-02-12T20:32:15.928Z,101500.56
2023-02-12T20:34:50.864Z,101501.72
2023-02-12T20:37:21.640Z,101501.25
2023-02-12T20:39:50.674Z,101497.03
2023-02-12T20:42:19.691Z,101501.59
2023-02-12T20:44:48.689Z,101501.94
2023-02-12T20:47:17.713Z,101496.09
2023-02-12T20:49:48.942Z,101498.03
2023-02-12T20:52:18.038Z,101504.22
2023-02-12T20:54:51.779Z,101493.56
2023-02-12T20:57:23.066Z,101493.88
2023-02-12T20:59:52.039Z,101502.00
2023-02-12T21:02:21.029Z,101496.16
2023-02-12T21:04:51.905Z,101487.75
2023-02-12T21:07:20.943Z,101494.28
2023-02-12T21:09:51.451Z,101497.03
2023-02-12T21:12:20.484Z,101501.75
2023-02-12T21:14:51.787Z,101501.09
2023-02-12T21:17:22.015Z,101506.63
2023-02-12T21:19:54.001Z,101502.56
2023-02-12T21:22:24.250Z,101507.31
2023-02-12T21:24:54.647Z,101512.97
2023-02-12T21:27:23.652Z,101515.88
2023-02-12T21:29:52.711Z,101512.81
2023-02-12T21:32:21.830Z,101513.16
2023-02-12T21:34:50.917Z,101518.00
2023-02-12T21:37:19.973Z,101513.16
2023-02-12T21:39:49.145Z,101514.47
2023-02-12T21:42:22.449Z,101512.19
2023-02-12T21:44:51.657Z,101514.50
2023-02-12T21:47:20.631Z,101507.38
2023-02-12T21:49:51.997Z,101505.09
2023-02-12T21:52:21.086Z,101508.03
2023-02-12T21:54:50.101Z,101513.53
2023-02-12T21:57:21.784Z,101519.06
2023-02-12T21:59:52.195Z,101522.94
2023-02-12T22:02:21.178Z,101521.66
2023-02-12T22:04:50.263Z,101519.22
2023-02-12T22:07:22.159Z,101528.16
2023-02-12T22:09:51.133Z,101533.00
2023-02-12T22:12:20.074Z,101536.72
2023-02-12T22:14:49.156Z,101530.91
2023-02-12T22:17:19.493Z,101535.44
2023-02-12T22:19:48.497Z,101535.91
2023-02-12T22:22:17.532Z,101530.25
2023-02-12T22:24:46.811Z,101531.38
2023-02-12T22:27:15.821Z,101527.34
2023-02-12T22:29:44.821Z,101534.47
2023-02-12T22:32:16.589Z,101529.78
2023-02-12T22:34:47.036Z,101520.72
2023-02-12T22:37:19.066Z,101525.22
2023-02-12T22:39:48.144Z,101521.97
2023-02-12T22:42:17.152Z,101520.38
2023-02-12T22:44:49.150Z,101527.66
2023-02-12T22:47:18.132Z,101525.22
2023-02-12T22:49:48.533Z,101520.22
2023-02-12T22:52:17.751Z,101523.94
2023-02-12T22:54:46.871Z,101519.88
2023-02-12T22:57:17.815Z,101527.78
2023-02-12T22:59:50.109Z,101536.69
2023-02-12T23:02:19.094Z,101536.84
2023-02-12T23:04:49.518Z,101540.75
2023-02-12T23:07:18.481Z,101531.66
2023-02-12T23:09:47.531Z,101540.41
2023-02-12T23:12:16.496Z,101537.00
2023-02-12T23:14:45.538Z,101533.75
2023-02-12T23:17:17.543Z,101538.31
2023-02-12T23:19:46.549Z,101542.66
2023-02-12T23:22:16.862Z,101539.56
2023-02-12T23:24:46.127Z,101546.69
2023-02-12T23:27:15.386Z,101535.78
2023-02-12T23:29:44.453Z,101540.97
2023-02-12T23:32:13.496Z,101537.75
2023-02-12T23:34:42.525Z,101532.88
2023-02-12T23:37:13.766Z,101541.63
2023-02-12T23:39:46.871Z,101546.97
2023-02-12T23:42:15.906Z,101535.13
2023-02-12T23:44:44.996Z,101536.25
2023-02-12T23:47:14.048Z,101529.47
2023-02-12T23:49:43.082Z,101530.59
2023-02-12T23:52:12.088Z,101519.25
2023-02-12T23:54:43.786Z,101524.75
2023-02-12T23:57:14.140Z,101523.09
2023-02-12T23:59:43.295Z,101521.78
